Time;durP1;ratioP1;P1;durP2;ratioP2;P2;SDS_P1;SDS_P2;PMS_P1;PMS_P2;Temp;Humidity;BMP_temperature;BMP_pressure;BME280_temperature;BME280_humidity;BME280_pressure;Samples;Min_cycle;Max_cycle;Signal;HPM_P1;HPM_P2
2021/05/21 00:05:37;;;;;;;6.13;5.63;;;;;;;9.13;100.00;100358.72;20827065;28;20666;-64
2021/05/21 00:15:37;;;;;;;7.10;6.40;;;;;;;9.09;100.00;100355.38;20826529;28;20304;-60
2021/05/21 00:25:38;;;;;;;5.67;5.27;;;;;;;8.91;100.00;100344.00;20825569;28;20244;-60
2021/05/21 00:35:38;;;;;;;6.77;6.17;;;;;;;8.81;100.00;100324.19;20824167;28;20222;-64
2021/05/21 00:45:39;;;;;;;6.30;5.77;;;;;;;8.89;100.00;100321.94;20822811;28;20304;-66
2021/05/21 00:55:39;;;;;;;6.93;6.33;;;;;;;8.85;100.00;100325.72;20823209;28;20685;-60
2021/05/21 01:05:40;;;;;;;7.07;6.47;;;;;;;8.52;100.00;100322.28;20822328;28;20303;-60
2021/05/21 01:15:42;;;;;;;7.07;6.38;;;;;;;8.48;100.00;100326.06;20820598;28;20209;-66
2021/05/21 01:25:42;;;;;;;8.10;7.40;;;;;;;8.68;100.00;100323.16;20821221;28;20220;-66
2021/05/21 01:35:43;;;;;;;8.00;7.30;;;;;;;8.87;100.00;100323.81;20820130;28;20227;-60
2021/05/21 01:45:43;;;;;;;8.70;7.90;;;;;;;8.90;100.00;100317.47;20818294;28;20543;-60
2021/05/21 01:55:50;;;;;;;7.82;7.03;;;;;;;8.72;100.00;100319.34;20818779;28;20219;-65
2021/05/21 02:05:51;;;;;;;8.80;8.00;;;;;;;8.52;100.00;100312.50;20817818;28;20230;-61
2021/05/21 02:15:51;;;;;;;9.30;8.40;;;;;;;8.52;100.00;100309.84;20816901;28;20249;-60
2021/05/21 02:25:52;;;;;;;7.45;6.85;;;;;;;8.61;100.00;100295.16;20816093;28;20222;-62
2021/05/21 02:35:52;;;;;;;9.93;8.93;;;;;;;8.57;100.00;100277.69;20815477;28;20216;-62
2021/05/21 02:45:53;;;;;;;9.67;8.83;;;;;;;8.66;100.00;100303.75;20814807;28;20225;-67
2021/05/21 02:55:53;;;;;;;8.17;7.37;;;;;;;8.77;100.00;100296.03;20812671;28;20729;-66
2021/05/21 03:05:56;;;;;;;8.73;8.00;;;;;;;9.00;100.00;100298.22;20813537;28;20228;-61
2021/05/21 03:15:58;;;;;;;8.40;7.60;;;;;;;9.29;100.00;100298.31;20812241;28;20258;-61
2021/05/21 03:26:00;;;;;;;8.87;8.07;;;;;;;9.55;100.00;100289.59;20813273;28;20292;-64
2021/05/21 03:36:01;;;;;;;9.00;8.20;;;;;;;10.69;100.00;100292.25;20813043;28;20305;-61
2021/05/21 03:46:01;;;;;;;9.23;8.43;;;;;;;12.19;100.00;100295.28;20810700;28;20717;-66
2021/05/21 03:56:02;;;;;;;8.33;7.47;;;;;;;12.97;88.50;100289.56;20812424;28;20686;-66
2021/05/21 04:06:02;;;;;;;7.93;7.23;;;;;;;12.38;89.25;100286.78;20815702;28;20231;-60
2021/05/21 04:16:03;;;;;;;7.68;7.07;;;;;;;13.08;89.80;100289.63;20825152;28;20478;-62
2021/05/21 04:26:03;;;;;;;7.47;6.77;;;;;;;13.84;86.36;100291.81;20824409;28;20238;-65
2021/05/21 04:36:05;;;;;;;7.13;6.43;;;;;;;14.68;83.71;100287.78;20824800;28;20225;-67
2021/05/21 04:46:06;;;;;;;7.23;6.63;;;;;;;14.67;78.43;100302.19;20824326;28;20286;-61
2021/05/21 04:56:10;;;;;;;7.50;6.87;;;;;;;13.61;80.77;100295.44;20823536;28;20235;-61
2021/05/21 05:06:11;;;;;;;7.13;6.53;;;;;;;13.36;83.73;100295.63;20822627;28;20707;-62
2021/05/21 05:16:11;;;;;;;7.97;7.27;;;;;;;13.40;83.43;100286.38;20821966;28;20308;-62
2021/05/21 05:26:12;;;;;;;7.97;7.27;;;;;;;13.33;82.31;100294.88;20821087;28;20300;-62
2021/05/21 05:36:13;;;;;;;7.10;6.50;;;;;;;13.41;82.39;100302.31;20794500;28;20321;-62
2021/05/21 05:46:14;;;;;;;7.43;6.73;;;;;;;13.66;80.56;100278.00;20801920;28;20226;-61
2021/05/21 05:56:15;;;;;;;6.43;5.83;;;;;;;14.27;80.29;100272.31;20797109;28;20234;-64
2021/05/21 06:06:15;;;;;;;5.97;5.53;;;;;;;15.03;77.56;100261.53;20796152;28;20555;-63
2021/05/21 06:16:16;;;;;;;6.18;5.68;;;;;;;15.55;74.06;100272.44;20803907;28;20838;-63
2021/05/21 06:36:25;;;;;;;5.73;5.33;;;;;;;16.29;74.21;100265.03;20779517;28;20220;-64
2021/05/21 06:46:25;;;;;;;5.13;4.63;;;;;;;16.75;68.61;100256.41;20761668;28;20254;-61
2021/05/21 06:56:25;;;;;;;5.27;4.77;;;;;;;16.93;70.90;100252.00;20775355;28;20227;-64
2021/05/21 07:06:26;;;;;;;5.20;4.83;;;;;;;16.61;69.24;100219.03;20760725;28;20240;-62
2021/05/21 07:16:26;;;;;;;4.30;3.90;;;;;;;16.63;66.99;100226.03;20759261;28;20235;-61
2021/05/21 07:26:29;;;;;;;3.23;2.97;;;;;;;16.91;66.22;100233.28;20746672;28;20238;-64
2021/05/21 07:36:31;;;;;;;2.90;2.70;;;;;;;17.14;63.40;100206.06;20749428;28;20319;-64
2021/05/21 07:46:34;;;;;;;2.57;2.37;;;;;;;17.28;60.03;100192.94;20769356;28;20235;-66
2021/05/21 07:56:34;;;;;;;3.00;2.00;;;;;;;17.27;61.52;100185.00;20756598;28;20312;-68
2021/05/21 08:06:38;;;;;;;2.37;1.83;;;;;;;17.43;58.29;100185.25;20769112;28;20228;-69
2021/05/21 08:16:38;;;;;;;2.37;2.17;;;;;;;18.00;56.42;100176.13;20751077;28;20289;-66
2021/05/21 08:26:39;;;;;;;1.53;1.30;;;;;;;19.21;54.18;100169.44;20774736;28;20844;-65
2021/05/21 08:36:39;;;;;;;2.17;1.07;;;;;;;19.72;48.93;100179.47;20750296;28;20837;-64
2021/05/21 08:46:40;;;;;;;2.47;1.33;;;;;;;20.42;51.35;100175.56;20839817;28;20558;-67
2021/05/21 08:56:43;;;;;;;1.40;1.30;;;;;;;20.90;50.97;100160.38;20797659;28;20235;-64
2021/05/21 09:06:44;;;;;;;1.30;1.20;;;;;;;21.16;49.49;100149.34;20824872;28;20257;-63
2021/05/21 09:16:45;;;;;;;1.33;1.23;;;;;;;21.07;44.80;100134.94;20805346;28;20247;-64
2021/05/21 09:26:48;;;;;;;1.33;1.00;;;;;;;20.96;47.99;100120.88;20795768;28;20230;-63
2021/05/21 09:36:51;;;;;;;1.10;1.00;;;;;;;21.02;46.49;100121.03;20809309;28;20216;-63
2021/05/21 09:46:53;;;;;;;1.37;0.90;;;;;;;21.47;46.56;100108.81;20787656;28;20266;-66
2021/05/21 09:57:04;;;;;;;1.50;0.93;;;;;;;21.10;44.86;100107.47;20807711;28;21013;-63
2021/05/21 10:07:05;;;;;;;1.30;1.20;;;;;;;20.59;46.37;100091.56;20784960;28;20227;-66
2021/05/21 10:17:07;;;;;;;1.53;0.90;;;;;;;20.94;47.37;100085.78;20826180;28;20225;-63
2021/05/21 10:27:17;;;;;;;0.90;0.90;;;;;;;21.08;44.87;100066.09;20790948;28;20311;-64
2021/05/21 10:37:28;;;;;;;1.27;1.13;;;;;;;21.03;43.00;100051.34;20832155;28;20312;-66
2021/05/21 10:47:35;;;;;;;1.10;1.00;;;;;;;21.22;42.93;100044.75;20795646;28;20223;-67
2021/05/21 10:57:36;;;;;;;1.03;0.73;;;;;;;21.10;45.55;100031.50;20792085;28;20211;-64
2021/05/21 11:07:43;;;;;;;1.20;1.10;;;;;;;20.70;45.13;100018.00;20801480;28;20220;-65
2021/05/21 11:17:47;;;;;;;1.40;0.90;;;;;;;20.23;46.84;99994.25;20782601;28;20242;-64
2021/05/21 11:27:47;;;;;;;1.00;0.80;;;;;;;21.14;46.31;99984.00;20802443;28;20223;-63
2021/05/21 11:37:51;;;;;;;1.17;0.90;;;;;;;21.99;44.94;99967.84;20780704;28;20223;-63
2021/05/21 11:47:54;;;;;;;0.90;0.90;;;;;;;21.81;42.90;99946.38;20800395;28;20697;-64
2021/05/21 11:57:57;;;;;;;2.60;1.40;;;;;;;21.47;42.41;99946.75;20783824;28;20239;-63
2021/05/21 12:07:58;;;;;;;1.07;0.97;;;;;;;21.29;45.33;99939.88;20795418;28;20228;-66
2021/05/21 12:18:03;;;;;;;0.80;0.80;;;;;;;21.53;44.58;99918.03;20788177;28;20235;-66
2021/05/21 12:28:04;;;;;;;0.90;0.90;;;;;;;22.01;45.45;99907.88;20795462;28;20278;-66
2021/05/21 12:38:06;;;;;;;1.20;1.10;;;;;;;22.94;41.39;99902.91;20810903;28;20222;-64
2021/05/21 12:48:06;;;;;;;1.10;1.10;;;;;;;22.48;43.22;99888.59;20793920;28;20255;-64
2021/05/21 12:58:07;;;;;;;2.07;0.90;;;;;;;22.33;43.20;99871.44;20812326;28;20307;-66
2021/05/21 13:08:07;;;;;;;2.27;1.10;;;;;;;22.85;43.53;99871.38;20790764;28;20323;-65
2021/05/21 13:18:08;;;;;;;1.00;0.90;;;;;;;23.04;43.31;99868.09;20810453;28;20251;-65
2021/05/21 13:28:09;;;;;;;2.73;0.90;;;;;;;23.17;40.33;99862.81;20790378;28;20228;-66
2021/05/21 13:38:10;;;;;;;2.07;1.00;;;;;;;22.95;41.20;99851.00;20806311;28;20228;-65
2021/05/21 13:48:10;;;;;;;3.40;1.10;;;;;;;22.70;41.48;99835.16;20794730;28;20321;-66
2021/05/21 13:58:11;;;;;;;2.13;1.20;;;;;;;22.36;39.09;99809.34;20798545;28;20261;-64
2021/05/21 14:08:11;;;;;;;1.80;0.90;;;;;;;21.93;40.64;99784.63;20802072;28;20320;-66
2021/05/21 14:18:12;;;;;;;1.07;1.00;;;;;;;22.07;39.32;99774.00;20788348;28;20232;-65
2021/05/21 14:28:12;;;;;;;1.00;1.00;;;;;;;22.21;42.61;99759.59;20777168;28;20602;-65
2021/05/21 14:38:13;;;;;;;2.33;1.10;;;;;;;22.40;40.19;99753.56;20702063;28;20221;-65
2021/05/21 14:48:13;;;;;;;1.33;1.23;;;;;;;22.43;41.46;99758.66;20721502;28;20551;-66
2021/05/21 14:58:14;;;;;;;1.30;1.20;;;;;;;22.83;41.56;99748.28;20730008;28;20240;-64
2021/05/21 15:08:15;;;;;;;1.47;1.37;;;;;;;22.76;40.50;99745.50;20791585;28;20230;-62
2021/05/21 15:28:24;;;;;;;2.10;1.20;;;;;;;21.88;42.08;99702.84;20793777;28;20224;-62
2021/05/21 15:38:25;;;;;;;3.17;0.80;;;;;;;22.02;42.33;99697.63;20794982;28;20224;-63
2021/05/21 15:48:33;;;;;;;0.93;0.90;;;;;;;21.77;42.58;99691.59;20786284;28;20252;-62
2021/05/21 16:08:37;;;;;;;1.63;1.43;;;;;;;21.16;42.09;99683.47;20794913;28;20258;-62
2021/05/21 16:18:39;;;;;;;1.40;1.30;;;;;;;21.23;43.16;99663.78;20799845;28;20593;-62
2021/05/21 16:28:40;;;;;;;0.80;0.80;;;;;;;21.06;44.68;99677.44;20813284;28;20235;-66
2021/05/21 16:38:40;;;;;;;3.33;0.97;;;;;;;21.01;45.32;99679.03;20813582;28;20588;-64
2021/05/21 16:48:42;;;;;;;3.33;1.10;;;;;;;20.76;45.64;99664.78;20797701;28;20231;-63
2021/05/21 16:58:44;;;;;;;0.80;0.80;;;;;;;20.28;45.75;99634.22;20821809;28;20311;-62
2021/05/21 17:08:44;;;;;;;2.30;0.90;;;;;;;19.96;46.85;99621.66;20802625;28;20238;-63
2021/05/21 17:19:02;;;;;;;1.57;1.10;;;;;;;19.50;47.55;99596.28;20797815;28;20232;-62
2021/05/21 18:00:30;;;;;;;1.40;1.30;;;;;;;18.24;51.57;99581.34;20785941;28;20234;-61
2021/05/21 18:10:48;;;;;;;1.53;1.30;;;;;;;17.99;51.75;99598.53;20805535;28;20216;-63
2021/05/21 19:02:16;;;;;;;3.57;1.10;;;;;;;16.85;55.72;99619.38;20776237;28;20233;-61
2021/05/21 19:12:24;;;;;;;0.90;0.90;;;;;;;16.41;56.88;99609.53;20768527;28;20318;-61
2021/05/21 19:22:25;;;;;;;2.07;1.20;;;;;;;16.26;57.14;99609.19;20788448;28;20220;-61
2021/05/21 19:32:35;;;;;;;1.97;0.87;;;;;;;16.01;58.11;99597.31;20789457;28;20291;-61
2021/05/21 20:03:12;;;;;;;2.60;1.67;;;;;;;15.31;60.61;99582.59;20816798;28;20220;-60
2021/05/21 20:13:13;;;;;;;1.70;1.60;;;;;;;15.26;60.97;99587.56;20793646;28;20728;-63
2021/05/21 20:23:14;;;;;;;3.27;1.70;;;;;;;15.26;61.56;99584.03;20813583;28;20298;-62
2021/05/21 20:33:26;;;;;;;1.90;1.70;;;;;;;15.24;61.26;99575.25;20796397;28;20759;-61
2021/05/21 21:55:34;;;;;;;1.77;1.40;;;;;;;15.69;62.39;99576.25;20808087;28;20593;-59
2021/05/21 22:25:54;;;;;;;2.37;1.23;;;;;;;15.68;62.35;99568.34;20786929;28;20306;-60
2021/05/21 22:35:54;;;;;;;3.13;1.50;;;;;;;15.60;62.39;99558.28;20803200;28;20220;-59
2021/05/21 22:45:55;;;;;;;2.22;1.35;;;;;;;15.62;62.91;99558.16;20797852;28;20299;-60
2021/05/21 22:55:55;;;;;;;1.90;1.20;;;;;;;15.62;62.59;99559.00;20795318;28;20218;-60
2021/05/21 23:05:56;;;;;;;1.33;1.03;;;;;;;15.60;62.49;99560.13;20798162;28;20251;-65
2021/05/21 23:15:56;;;;;;;2.90;1.20;;;;;;;15.53;61.43;99559.88;20786108;28;20233;-66
2021/05/21 23:25:57;;;;;;;0.87;0.83;;;;;;;15.48;62.13;99568.38;20802432;28;20303;-59
2021/05/21 23:35:58;;;;;;;0.73;0.73;;;;;;;15.43;62.39;99554.53;20778236;28;20278;-62
2021/05/21 23:45:58;;;;;;;0.60;0.60;;;;;;;15.17;62.82;99518.56;20801983;28;20234;-60
2021/05/21 23:55:59;;;;;;;2.63;1.00;;;;;;;15.30;64.16;99559.41;20782153;28;20338;-60
